sensor_id;sensor_type;location;lat;lon;timestamp;temperature;humidity
46816;DHT22;32787;53.316;8.670;2023-09-12T00:00:53;19.70;94.30
46816;DHT22;32787;53.316;8.670;2023-09-12T00:03:21;19.80;94.40
46816;DHT22;32787;53.316;8.670;2023-09-12T00:05:53;19.70;94.40
46816;DHT22;32787;53.316;8.670;2023-09-12T00:08:19;19.70;94.40
46816;DHT22;32787;53.316;8.670;2023-09-12T00:10:45;19.70;94.20
46816;DHT22;32787;53.316;8.670;2023-09-12T00:13:11;19.50;94.30
46816;DHT22;32787;53.316;8.670;2023-09-12T00:15:36;19.50;94.60
46816;DHT22;32787;53.316;8.670;2023-09-12T00:18:02;19.80;94.10
46816;DHT22;32787;53.316;8.670;2023-09-12T00:20:28;19.70;93.80
46816;DHT22;32787;53.316;8.670;2023-09-12T00:22:54;19.70;93.90
46816;DHT22;32787;53.316;8.670;2023-09-12T00:25:20;19.50;94.00
46816;DHT22;32787;53.316;8.670;2023-09-12T00:27:46;19.50;94.10
46816;DHT22;32787;53.316;8.670;2023-09-12T00:30:14;19.50;94.20
46816;DHT22;32787;53.316;8.670;2023-09-12T00:32:40;19.40;94.30
46816;DHT22;32787;53.316;8.670;2023-09-12T00:35:05;19.50;94.50
46816;DHT22;32787;53.316;8.670;2023-09-12T00:37:31;19.40;94.30
46816;DHT22;32787;53.316;8.670;2023-09-12T00:39:57;19.30;94.40
46816;DHT22;32787;53.316;8.670;2023-09-12T00:42:25;19.40;94.50
46816;DHT22;32787;53.316;8.670;2023-09-12T00:44:51;19.30;94.60
46816;DHT22;32787;53.316;8.670;2023-09-12T00:47:17;19.30;94.50
46816;DHT22;32787;53.316;8.670;2023-09-12T00:49:43;19.30;94.50
46816;DHT22;32787;53.316;8.670;2023-09-12T00:52:10;19.30;94.80
46816;DHT22;32787;53.316;8.670;2023-09-12T00:54:38;19.30;94.70
46816;DHT22;32787;53.316;8.670;2023-09-12T00:57:04;19.30;94.90
46816;DHT22;32787;53.316;8.670;2023-09-12T00:59:30;19.30;95.10
46816;DHT22;32787;53.316;8.670;2023-09-12T01:01:56;19.30;95.10
46816;DHT22;32787;53.316;8.670;2023-09-12T01:04:22;19.40;95.10
46816;DHT22;32787;53.316;8.670;2023-09-12T01:06:48;19.40;95.10
46816;DHT22;32787;53.316;8.670;2023-09-12T01:09:14;19.50;94.80
46816;DHT22;32787;53.316;8.670;2023-09-12T01:11:41;19.30;94.70
46816;DHT22;32787;53.316;8.670;2023-09-12T01:14:07;19.30;94.80
46816;DHT22;32787;53.316;8.670;2023-09-12T01:16:32;19.30;94.70
46816;DHT22;32787;53.316;8.670;2023-09-12T01:18:58;19.20;94.90
46816;DHT22;32787;53.316;8.670;2023-09-12T01:22:01;19.30;94.90
46816;DHT22;32787;53.316;8.670;2023-09-12T01:24:45;19.20;94.90
46816;DHT22;32787;53.316;8.670;2023-09-12T01:27:30;19.20;95.10
46816;DHT22;32787;53.316;8.670;2023-09-12T01:30:01;19.30;95.30
46816;DHT22;32787;53.316;8.670;2023-09-12T01:32:29;19.50;95.00
46816;DHT22;32787;53.316;8.670;2023-09-12T01:34:55;19.30;94.80
46816;DHT22;32787;53.316;8.670;2023-09-12T01:37:20;19.30;94.90
46816;DHT22;32787;53.316;8.670;2023-09-12T01:39:46;19.30;95.00
46816;DHT22;32787;53.316;8.670;2023-09-12T01:42:15;19.20;95.00
46816;DHT22;32787;53.316;8.670;2023-09-12T01:44:44;19.30;95.10
46816;DHT22;32787;53.316;8.670;2023-09-12T01:47:11;19.30;95.20
46816;DHT22;32787;53.316;8.670;2023-09-12T01:49:41;19.40;95.10
46816;DHT22;32787;53.316;8.670;2023-09-12T01:52:08;19.40;95.00
46816;DHT22;32787;53.316;8.670;2023-09-12T01:54:34;19.30;95.00
46816;DHT22;32787;53.316;8.670;2023-09-12T01:57:02;19.30;95.10
46816;DHT22;32787;53.316;8.670;2023-09-12T01:59:28;19.40;95.20
46816;DHT22;32787;53.316;8.670;2023-09-12T02:01:55;19.40;95.10
46816;DHT22;32787;53.316;8.670;2023-09-12T02:04:20;19.40;95.10
46816;DHT22;32787;53.316;8.670;2023-09-12T02:06:46;19.60;95.00
46816;DHT22;32787;53.316;8.670;2023-09-12T02:09:12;19.50;94.90
46816;DHT22;32787;53.316;8.670;2023-09-12T02:11:37;19.50;95.00
46816;DHT22;32787;53.316;8.670;2023-09-12T02:14:03;19.50;94.90
46816;DHT22;32787;53.316;8.670;2023-09-12T02:16:30;19.40;94.90
46816;DHT22;32787;53.316;8.670;2023-09-12T02:18:56;19.60;95.10
46816;DHT22;32787;53.316;8.670;2023-09-12T02:21:21;19.40;94.80
46816;DHT22;32787;53.316;8.670;2023-09-12T02:23:47;19.40;94.90
46816;DHT22;32787;53.316;8.670;2023-09-12T02:26:12;19.50;95.00
46816;DHT22;32787;53.316;8.670;2023-09-12T02:28:38;19.50;95.10
46816;DHT22;32787;53.316;8.670;2023-09-12T02:31:10;19.50;95.00
46816;DHT22;32787;53.316;8.670;2023-09-12T02:33:40;19.50;95.10
46816;DHT22;32787;53.316;8.670;2023-09-12T02:36:06;19.50;95.10
46816;DHT22;32787;53.316;8.670;2023-09-12T02:38:32;19.40;95.10
46816;DHT22;32787;53.316;8.670;2023-09-12T02:40:58;19.30;95.30
46816;DHT22;32787;53.316;8.670;2023-09-12T02:43:24;19.30;95.50
46816;DHT22;32787;53.316;8.670;2023-09-12T02:45:49;19.30;95.60
46816;DHT22;32787;53.316;8.670;2023-09-12T02:48:15;19.30;95.60
46816;DHT22;32787;53.316;8.670;2023-09-12T02:50:41;19.40;95.70
46816;DHT22;32787;53.316;8.670;2023-09-12T02:53:06;19.50;95.40
46816;DHT22;32787;53.316;8.670;2023-09-12T02:55:32;19.50;95.30
46816;DHT22;32787;53.316;8.670;2023-09-12T02:57:58;19.40;95.20
46816;DHT22;32787;53.316;8.670;2023-09-12T03:00:24;19.40;95.30
46816;DHT22;32787;53.316;8.670;2023-09-12T03:02:50;19.50;95.30
46816;DHT22;32787;53.316;8.670;2023-09-12T03:05:15;19.60;95.30
46816;DHT22;32787;53.316;8.670;2023-09-12T03:07:41;19.60;95.30
46816;DHT22;32787;53.316;8.670;2023-09-12T03:10:07;19.60;95.10
46816;DHT22;32787;53.316;8.670;2023-09-12T03:12:33;19.50;95.10
46816;DHT22;32787;53.316;8.670;2023-09-12T03:14:58;19.50;95.20
46816;DHT22;32787;53.316;8.670;2023-09-12T03:17:24;19.40;95.20
46816;DHT22;32787;53.316;8.670;2023-09-12T03:19:49;19.40;95.20
46816;DHT22;32787;53.316;8.670;2023-09-12T03:22:15;19.30;95.30
46816;DHT22;32787;53.316;8.670;2023-09-12T03:24:41;19.30;95.40
46816;DHT22;32787;53.316;8.670;2023-09-12T03:27:07;19.30;95.40
46816;DHT22;32787;53.316;8.670;2023-09-12T03:29:33;19.30;95.50
46816;DHT22;32787;53.316;8.670;2023-09-12T03:31:58;19.30;95.50
46816;DHT22;32787;53.316;8.670;2023-09-12T03:34:24;19.30;95.60
46816;DHT22;32787;53.316;8.670;2023-09-12T03:36:50;19.30;95.60
46816;DHT22;32787;53.316;8.670;2023-09-12T03:39:15;19.30;95.60
46816;DHT22;32787;53.316;8.670;2023-09-12T03:41:41;19.30;95.60
46816;DHT22;32787;53.316;8.670;2023-09-12T03:44:07;19.30;95.60
46816;DHT22;32787;53.316;8.670;2023-09-12T03:46:33;19.30;95.70
46816;DHT22;32787;53.316;8.670;2023-09-12T03:48:59;19.20;95.80
46816;DHT22;32787;53.316;8.670;2023-09-12T03:51:24;19.30;95.80
46816;DHT22;32787;53.316;8.670;2023-09-12T03:53:50;19.30;95.80
46816;DHT22;32787;53.316;8.670;2023-09-12T03:56:16;19.30;95.70
46816;DHT22;32787;53.316;8.670;2023-09-12T03:58:45;19.30;95.70
46816;DHT22;32787;53.316;8.670;2023-09-12T04:01:11;19.30;95.70
46816;DHT22;32787;53.316;8.670;2023-09-12T04:03:36;19.30;95.60
46816;DHT22;32787;53.316;8.670;2023-09-12T04:06:02;19.20;95.70
46816;DHT22;32787;53.316;8.670;2023-09-12T04:08:28;19.20;95.80
46816;DHT22;32787;53.316;8.670;2023-09-12T04:10:53;19.30;95.60
46816;DHT22;32787;53.316;8.670;2023-09-12T04:13:19;19.20;95.60
46816;DHT22;32787;53.316;8.670;2023-09-12T04:15:45;19.10;95.60
46816;DHT22;32787;53.316;8.670;2023-09-12T04:18:10;19.10;95.60
46816;DHT22;32787;53.316;8.670;2023-09-12T04:20:36;19.10;95.70
46816;DHT22;32787;53.316;8.670;2023-09-12T04:23:02;19.10;95.70
46816;DHT22;32787;53.316;8.670;2023-09-12T04:25:32;19.00;95.70
46816;DHT22;32787;53.316;8.670;2023-09-12T04:27:59;19.00;95.70
46816;DHT22;32787;53.316;8.670;2023-09-12T04:30:24;19.10;95.70
46816;DHT22;32787;53.316;8.670;2023-09-12T04:32:50;19.00;95.70
46816;DHT22;32787;53.316;8.670;2023-09-12T04:35:15;18.90;95.80
46816;DHT22;32787;53.316;8.670;2023-09-12T04:37:41;18.90;95.80
46816;DHT22;32787;53.316;8.670;2023-09-12T04:40:07;18.90;95.80
46816;DHT22;32787;53.316;8.670;2023-09-12T04:42:34;18.90;95.80
46816;DHT22;32787;53.316;8.670;2023-09-12T04:44:59;18.90;95.80
46816;DHT22;32787;53.316;8.670;2023-09-12T04:47:25;18.90;95.90
46816;DHT22;32787;53.316;8.670;2023-09-12T04:49:50;18.90;95.90
46816;DHT22;32787;53.316;8.670;2023-09-12T04:52:17;18.80;95.90
46816;DHT22;32787;53.316;8.670;2023-09-12T04:54:43;18.90;95.90
46816;DHT22;32787;53.316;8.670;2023-09-12T04:57:08;18.80;95.90
46816;DHT22;32787;53.316;8.670;2023-09-12T04:59:34;18.80;95.90
46816;DHT22;32787;53.316;8.670;2023-09-12T05:02:00;18.70;95.90
46816;DHT22;32787;53.316;8.670;2023-09-12T05:04:25;18.80;95.90
46816;DHT22;32787;53.316;8.670;2023-09-12T05:06:51;18.80;95.90
46816;DHT22;32787;53.316;8.670;2023-09-12T05:09:16;18.80;95.90
46816;DHT22;32787;53.316;8.670;2023-09-12T05:11:42;18.70;95.90
46816;DHT22;32787;53.316;8.670;2023-09-12T05:14:08;18.70;96.00
46816;DHT22;32787;53.316;8.670;2023-09-12T05:16:33;18.70;95.90
46816;DHT22;32787;53.316;8.670;2023-09-12T05:18:59;18.70;96.00
46816;DHT22;32787;53.316;8.670;2023-09-12T05:21:25;18.80;96.00
46816;DHT22;32787;53.316;8.670;2023-09-12T05:23:50;18.80;96.00
46816;DHT22;32787;53.316;8.670;2023-09-12T05:26:16;18.70;95.90
46816;DHT22;32787;53.316;8.670;2023-09-12T05:28:42;18.70;95.90
46816;DHT22;32787;53.316;8.670;2023-09-12T05:31:07;18.60;95.90
46816;DHT22;32787;53.316;8.670;2023-09-12T05:33:33;18.60;96.00
46816;DHT22;32787;53.316;8.670;2023-09-12T05:35:59;18.70;96.00
46816;DHT22;32787;53.316;8.670;2023-09-12T05:38:24;18.70;96.00
46816;DHT22;32787;53.316;8.670;2023-09-12T05:40:50;18.70;96.00
46816;DHT22;32787;53.316;8.670;2023-09-12T05:43:18;18.70;96.00
46816;DHT22;32787;53.316;8.670;2023-09-12T05:45:44;18.70;96.00
46816;DHT22;32787;53.316;8.670;2023-09-12T05:48:10;18.70;96.00
46816;DHT22;32787;53.316;8.670;2023-09-12T05:50:39;18.70;96.00
46816;DHT22;32787;53.316;8.670;2023-09-12T05:53:04;18.70;96.00
46816;DHT22;32787;53.316;8.670;2023-09-12T05:55:30;18.60;96.00
46816;DHT22;32787;53.316;8.670;2023-09-12T05:57:56;18.60;96.00
46816;DHT22;32787;53.316;8.670;2023-09-12T06:00:21;18.70;96.00
46816;DHT22;32787;53.316;8.670;2023-09-12T06:02:47;18.70;95.90
46816;DHT22;32787;53.316;8.670;2023-09-12T06:05:14;18.70;95.90
46816;DHT22;32787;53.316;8.670;2023-09-12T06:07:40;18.70;96.00
46816;DHT22;32787;53.316;8.670;2023-09-12T06:10:09;18.70;95.90
46816;DHT22;32787;53.316;8.670;2023-09-12T06:12:35;18.80;96.00
46816;DHT22;32787;53.316;8.670;2023-09-12T06:15:04;18.80;96.00
46816;DHT22;32787;53.316;8.670;2023-09-12T06:17:30;18.80;95.90
46816;DHT22;32787;53.316;8.670;2023-09-12T06:19:56;18.80;95.90
46816;DHT22;32787;53.316;8.670;2023-09-12T06:22:22;18.80;95.80
46816;DHT22;32787;53.316;8.670;2023-09-12T06:24:50;18.80;95.80
46816;DHT22;32787;53.316;8.670;2023-09-12T06:27:16;18.80;95.80
46816;DHT22;32787;53.316;8.670;2023-09-12T06:29:47;18.80;95.80
46816;DHT22;32787;53.316;8.670;2023-09-12T06:32:14;18.90;95.80
46816;DHT22;32787;53.316;8.670;2023-09-12T06:34:40;18.80;95.70
46816;DHT22;32787;53.316;8.670;2023-09-12T06:37:06;18.80;95.70
46816;DHT22;32787;53.316;8.670;2023-09-12T06:39:32;18.90;95.80
46816;DHT22;32787;53.316;8.670;2023-09-12T06:41:57;19.00;95.70
46816;DHT22;32787;53.316;8.670;2023-09-12T06:44:23;19.10;95.70
46816;DHT22;32787;53.316;8.670;2023-09-12T06:46:48;19.10;95.50
46816;DHT22;32787;53.316;8.670;2023-09-12T06:49:14;19.00;95.40
46816;DHT22;32787;53.316;8.670;2023-09-12T06:51:40;19.00;95.50
46816;DHT22;32787;53.316;8.670;2023-09-12T06:54:05;19.10;95.50
46816;DHT22;32787;53.316;8.670;2023-09-12T06:56:31;19.10;95.50
46816;DHT22;32787;53.316;8.670;2023-09-12T06:58:57;19.20;95.50
46816;DHT22;32787;53.316;8.670;2023-09-12T07:01:24;19.30;95.50
46816;DHT22;32787;53.316;8.670;2023-09-12T07:03:50;19.40;95.40
46816;DHT22;32787;53.316;8.670;2023-09-12T07:06:19;19.40;95.40
46816;DHT22;32787;53.316;8.670;2023-09-12T07:08:45;19.40;95.40
46816;DHT22;32787;53.316;8.670;2023-09-12T07:11:10;19.40;95.40
46816;DHT22;32787;53.316;8.670;2023-09-12T07:13:36;19.40;95.30
46816;DHT22;32787;53.316;8.670;2023-09-12T07:16:02;19.40;95.30
46816;DHT22;32787;53.316;8.670;2023-09-12T07:18:31;19.40;95.30
46816;DHT22;32787;53.316;8.670;2023-09-12T07:21:01;19.30;95.30
46816;DHT22;32787;53.316;8.670;2023-09-12T07:23:28;19.30;95.40
46816;DHT22;32787;53.316;8.670;2023-09-12T07:25:54;19.40;95.50
46816;DHT22;32787;53.316;8.670;2023-09-12T07:28:23;19.50;95.50
46816;DHT22;32787;53.316;8.670;2023-09-12T07:30:49;19.60;95.40
46816;DHT22;32787;53.316;8.670;2023-09-12T07:33:14;19.50;95.40
46816;DHT22;32787;53.316;8.670;2023-09-12T07:35:40;19.60;95.60
46816;DHT22;32787;53.316;8.670;2023-09-12T07:38:05;19.70;95.40
46816;DHT22;32787;53.316;8.670;2023-09-12T07:40:31;19.70;95.10
46816;DHT22;32787;53.316;8.670;2023-09-12T07:42:57;19.60;95.10
46816;DHT22;32787;53.316;8.670;2023-09-12T07:45:22;19.70;95.00
46816;DHT22;32787;53.316;8.670;2023-09-12T07:47:48;19.70;95.10
46816;DHT22;32787;53.316;8.670;2023-09-12T07:50:14;19.70;95.10
46816;DHT22;32787;53.316;8.670;2023-09-12T07:52:40;19.70;95.10
46816;DHT22;32787;53.316;8.670;2023-09-12T07:55:07;19.80;94.90
46816;DHT22;32787;53.316;8.670;2023-09-12T07:57:33;19.80;95.10
46816;DHT22;32787;53.316;8.670;2023-09-12T07:59:59;19.80;94.80
46816;DHT22;32787;53.316;8.670;2023-09-12T08:02:25;20.10;94.60
46816;DHT22;32787;53.316;8.670;2023-09-12T08:04:51;20.20;94.30
46816;DHT22;32787;53.316;8.670;2023-09-12T08:07:17;20.30;93.80
46816;DHT22;32787;53.316;8.670;2023-09-12T08:09:53;20.30;93.50
46816;DHT22;32787;53.316;8.670;2023-09-12T08:12:20;20.10;93.60
46816;DHT22;32787;53.316;8.670;2023-09-12T08:14:46;20.00;93.70
46816;DHT22;32787;53.316;8.670;2023-09-12T08:17:13;20.20;94.10
46816;DHT22;32787;53.316;8.670;2023-09-12T08:19:39;20.30;93.80
46816;DHT22;32787;53.316;8.670;2023-09-12T08:22:06;20.30;93.30
46816;DHT22;32787;53.316;8.670;2023-09-12T08:24:33;20.40;93.50
46816;DHT22;32787;53.316;8.670;2023-09-12T08:26:59;20.40;93.00
46816;DHT22;32787;53.316;8.670;2023-09-12T08:29:25;20.30;93.10
46816;DHT22;32787;53.316;8.670;2023-09-12T08:31:50;20.30;93.20
46816;DHT22;32787;53.316;8.670;2023-09-12T08:34:16;20.30;93.40
46816;DHT22;32787;53.316;8.670;2023-09-12T08:36:42;20.10;93.40
46816;DHT22;32787;53.316;8.670;2023-09-12T08:39:14;20.00;93.50
46816;DHT22;32787;53.316;8.670;2023-09-12T08:41:40;19.90;93.70
46816;DHT22;32787;53.316;8.670;2023-09-12T08:44:06;19.90;93.90
46816;DHT22;32787;53.316;8.670;2023-09-12T08:46:32;20.00;94.00
46816;DHT22;32787;53.316;8.670;2023-09-12T08:48:58;20.20;93.80
46816;DHT22;32787;53.316;8.670;2023-09-12T08:51:24;20.30;93.30
46816;DHT22;32787;53.316;8.670;2023-09-12T08:53:52;20.10;93.00
46816;DHT22;32787;53.316;8.670;2023-09-12T08:56:18;20.10;93.20
46816;DHT22;32787;53.316;8.670;2023-09-12T08:58:45;20.10;93.00
46816;DHT22;32787;53.316;8.670;2023-09-12T09:01:14;20.10;93.00
46816;DHT22;32787;53.316;8.670;2023-09-12T09:03:42;20.20;93.10
46816;DHT22;32787;53.316;8.670;2023-09-12T09:06:10;20.10;92.70
46816;DHT22;32787;53.316;8.670;2023-09-12T09:08:38;20.00;93.00
46816;DHT22;32787;53.316;8.670;2023-09-12T09:11:03;20.00;93.10
46816;DHT22;32787;53.316;8.670;2023-09-12T09:13:31;20.10;93.30
46816;DHT22;32787;53.316;8.670;2023-09-12T09:16:23;20.20;93.40
46816;DHT22;32787;53.316;8.670;2023-09-12T09:19:00;20.30;93.20
46816;DHT22;32787;53.316;8.670;2023-09-12T09:21:31;20.30;93.00
46816;DHT22;32787;53.316;8.670;2023-09-12T09:24:08;20.30;93.10
46816;DHT22;32787;53.316;8.670;2023-09-12T09:26:46;20.30;92.30
46816;DHT22;32787;53.316;8.670;2023-09-12T09:29:16;20.40;92.30
46816;DHT22;32787;53.316;8.670;2023-09-12T09:31:49;20.30;92.60
46816;DHT22;32787;53.316;8.670;2023-09-12T09:34:16;20.30;93.00
46816;DHT22;32787;53.316;8.670;2023-09-12T09:36:44;20.30;93.10
46816;DHT22;32787;53.316;8.670;2023-09-12T09:39:10;20.40;93.00
46816;DHT22;32787;53.316;8.670;2023-09-12T09:41:37;20.30;92.20
46816;DHT22;32787;53.316;8.670;2023-09-12T09:44:07;20.30;92.40
46816;DHT22;32787;53.316;8.670;2023-09-12T09:46:34;20.30;92.20
46816;DHT22;32787;53.316;8.670;2023-09-12T09:49:00;20.20;91.70
46816;DHT22;32787;53.316;8.670;2023-09-12T09:51:26;20.20;91.60
46816;DHT22;32787;53.316;8.670;2023-09-12T09:53:53;20.20;91.50
46816;DHT22;32787;53.316;8.670;2023-09-12T09:56:23;20.30;91.30
46816;DHT22;32787;53.316;8.670;2023-09-12T09:58:54;20.30;91.30
46816;DHT22;32787;53.316;8.670;2023-09-12T10:01:21;20.30;91.60
46816;DHT22;32787;53.316;8.670;2023-09-12T10:03:49;20.20;91.70
46816;DHT22;32787;53.316;8.670;2023-09-12T10:06:16;20.30;91.50
46816;DHT22;32787;53.316;8.670;2023-09-12T10:08:50;20.30;91.30
46816;DHT22;32787;53.316;8.670;2023-09-12T10:11:17;20.40;90.70
46816;DHT22;32787;53.316;8.670;2023-09-12T10:13:49;20.50;90.00
46816;DHT22;32787;53.316;8.670;2023-09-12T10:16:18;20.60;90.50
46816;DHT22;32787;53.316;8.670;2023-09-12T10:18:59;20.60;90.20
46816;DHT22;32787;53.316;8.670;2023-09-12T10:21:30;20.50;89.90
46816;DHT22;32787;53.316;8.670;2023-09-12T10:23:59;20.50;90.20
46816;DHT22;32787;53.316;8.670;2023-09-12T10:26:26;20.60;90.00
46816;DHT22;32787;53.316;8.670;2023-09-12T10:28:52;20.70;88.90
46816;DHT22;32787;53.316;8.670;2023-09-12T10:31:19;20.60;89.40
46816;DHT22;32787;53.316;8.670;2023-09-12T10:33:45;20.70;89.40
46816;DHT22;32787;53.316;8.670;2023-09-12T10:36:12;20.80;88.40
46816;DHT22;32787;53.316;8.670;2023-09-12T10:38:42;20.80;89.00
46816;DHT22;32787;53.316;8.670;2023-09-12T10:41:11;20.70;89.50
46816;DHT22;32787;53.316;8.670;2023-09-12T10:43:40;20.80;89.70
46816;DHT22;32787;53.316;8.670;2023-09-12T10:46:06;20.70;89.10
46816;DHT22;32787;53.316;8.670;2023-09-12T10:48:32;20.70;90.10
46816;DHT22;32787;53.316;8.670;2023-09-12T10:51:00;20.50;88.60
46816;DHT22;32787;53.316;8.670;2023-09-12T10:53:26;20.50;89.20
46816;DHT22;32787;53.316;8.670;2023-09-12T10:58:32;20.70;90.10
46816;DHT22;32787;53.316;8.670;2023-09-12T11:01:28;20.70;90.10
46816;DHT22;32787;53.316;8.670;2023-09-12T11:03:53;20.90;90.20
46816;DHT22;32787;53.316;8.670;2023-09-12T11:06:29;21.00;90.50
46816;DHT22;32787;53.316;8.670;2023-09-12T11:11:44;21.00;89.20
46816;DHT22;32787;53.316;8.670;2023-09-12T11:14:12;21.00;89.50
46816;DHT22;32787;53.316;8.670;2023-09-12T11:16:37;21.30;87.50
46816;DHT22;32787;53.316;8.670;2023-09-12T11:19:20;21.20;88.10
46816;DHT22;32787;53.316;8.670;2023-09-12T11:21:50;20.80;87.80
46816;DHT22;32787;53.316;8.670;2023-09-12T11:24:17;20.70;87.70
46816;DHT22;32787;53.316;8.670;2023-09-12T11:26:57;20.80;88.40
46816;DHT22;32787;53.316;8.670;2023-09-12T11:29:35;20.90;88.50
46816;DHT22;32787;53.316;8.670;2023-09-12T11:32:02;21.00;88.80
46816;DHT22;32787;53.316;8.670;2023-09-12T11:34:30;21.20;89.10
46816;DHT22;32787;53.316;8.670;2023-09-12T11:37:00;21.70;86.40
46816;DHT22;32787;53.316;8.670;2023-09-12T11:39:31;22.00;85.70
46816;DHT22;32787;53.316;8.670;2023-09-12T11:41:58;22.00;84.80
46816;DHT22;32787;53.316;8.670;2023-09-12T11:44:24;21.80;85.10
46816;DHT22;32787;53.316;8.670;2023-09-12T11:46:52;21.50;86.10
46816;DHT22;32787;53.316;8.670;2023-09-12T11:49:18;21.30;87.20
46816;DHT22;32787;53.316;8.670;2023-09-12T11:51:48;21.40;86.90
46816;DHT22;32787;53.316;8.670;2023-09-12T11:54:19;21.80;85.40
46816;DHT22;32787;53.316;8.670;2023-09-12T11:56:47;21.90;84.40
46816;DHT22;32787;53.316;8.670;2023-09-12T11:59:13;21.80;85.20
46816;DHT22;32787;53.316;8.670;2023-09-12T12:01:38;21.60;85.70
46816;DHT22;32787;53.316;8.670;2023-09-12T12:04:04;21.60;86.00
46816;DHT22;32787;53.316;8.670;2023-09-12T12:06:32;21.80;86.40
46816;DHT22;32787;53.316;8.670;2023-09-12T12:08:58;22.00;86.00
46816;DHT22;32787;53.316;8.670;2023-09-12T12:11:27;22.40;85.40
46816;DHT22;32787;53.316;8.670;2023-09-12T12:13:53;22.50;85.40
46816;DHT22;32787;53.316;8.670;2023-09-12T12:16:19;22.20;85.40
46816;DHT22;32787;53.316;8.670;2023-09-12T12:18:45;22.30;83.70
46816;DHT22;32787;53.316;8.670;2023-09-12T12:21:10;22.40;83.00
46816;DHT22;32787;53.316;8.670;2023-09-12T12:23:36;22.30;82.90
46816;DHT22;32787;53.316;8.670;2023-09-12T12:26:09;22.30;83.20
46816;DHT22;32787;53.316;8.670;2023-09-12T12:28:38;22.70;82.70
46816;DHT22;32787;53.316;8.670;2023-09-12T12:31:04;22.70;80.20
46816;DHT22;32787;53.316;8.670;2023-09-12T12:33:30;22.60;82.00
46816;DHT22;32787;53.316;8.670;2023-09-12T12:36:00;22.50;82.20
46816;DHT22;32787;53.316;8.670;2023-09-12T12:38:26;22.30;81.20
46816;DHT22;32787;53.316;8.670;2023-09-12T12:40:52;22.40;80.40
46816;DHT22;32787;53.316;8.670;2023-09-12T12:43:18;22.30;81.70
46816;DHT22;32787;53.316;8.670;2023-09-12T12:45:54;22.80;80.40
46816;DHT22;32787;53.316;8.670;2023-09-12T12:48:31;22.80;81.40
46816;DHT22;32787;53.316;8.670;2023-09-12T12:50:58;23.10;78.20
46816;DHT22;32787;53.316;8.670;2023-09-12T12:53:40;23.00;79.50
46816;DHT22;32787;53.316;8.670;2023-09-12T12:56:06;23.40;77.80
46816;DHT22;32787;53.316;8.670;2023-09-12T12:58:32;23.30;77.20
46816;DHT22;32787;53.316;8.670;2023-09-12T13:00:58;23.20;78.10
46816;DHT22;32787;53.316;8.670;2023-09-12T13:03:24;22.70;75.40
46816;DHT22;32787;53.316;8.670;2023-09-12T13:05:49;22.50;78.10
46816;DHT22;32787;53.316;8.670;2023-09-12T13:08:15;22.60;79.40
46816;DHT22;32787;53.316;8.670;2023-09-12T13:10:41;23.10;78.40
46816;DHT22;32787;53.316;8.670;2023-09-12T13:13:11;23.50;78.00
46816;DHT22;32787;53.316;8.670;2023-09-12T13:15:36;23.80;75.50
46816;DHT22;32787;53.316;8.670;2023-09-12T13:18:02;23.80;74.70
46816;DHT22;32787;53.316;8.670;2023-09-12T13:20:29;23.60;74.70
46816;DHT22;32787;53.316;8.670;2023-09-12T13:22:55;23.50;75.80
46816;DHT22;32787;53.316;8.670;2023-09-12T13:25:21;23.80;76.90
46816;DHT22;32787;53.316;8.670;2023-09-12T13:27:49;24.10;74.50
46816;DHT22;32787;53.316;8.670;2023-09-12T13:30:15;24.20;72.50
46816;DHT22;32787;53.316;8.670;2023-09-12T13:32:40;24.20;71.50
46816;DHT22;32787;53.316;8.670;2023-09-12T13:35:06;23.80;74.90
46816;DHT22;32787;53.316;8.670;2023-09-12T13:37:33;23.70;76.40
46816;DHT22;32787;53.316;8.670;2023-09-12T13:39:58;23.80;75.50
46816;DHT22;32787;53.316;8.670;2023-09-12T13:42:24;23.80;74.50
46816;DHT22;32787;53.316;8.670;2023-09-12T13:44:53;23.60;75.00
46816;DHT22;32787;53.316;8.670;2023-09-12T13:47:19;23.60;75.10
46816;DHT22;32787;53.316;8.670;2023-09-12T13:49:48;23.60;76.80
46816;DHT22;32787;53.316;8.670;2023-09-12T13:52:14;23.60;76.70
46816;DHT22;32787;53.316;8.670;2023-09-12T13:54:40;23.70;75.20
46816;DHT22;32787;53.316;8.670;2023-09-12T13:57:06;23.70;74.90
46816;DHT22;32787;53.316;8.670;2023-09-12T13:59:31;23.80;75.30
46816;DHT22;32787;53.316;8.670;2023-09-12T14:01:57;23.90;76.10
46816;DHT22;32787;53.316;8.670;2023-09-12T14:04:22;24.10;72.90
46816;DHT22;32787;53.316;8.670;2023-09-12T14:06:49;24.30;72.80
46816;DHT22;32787;53.316;8.670;2023-09-12T14:09:14;24.40;71.90
46816;DHT22;32787;53.316;8.670;2023-09-12T14:11:41;24.40;69.90
46816;DHT22;32787;53.316;8.670;2023-09-12T14:14:07;24.20;70.00
46816;DHT22;32787;53.316;8.670;2023-09-12T14:16:32;24.00;71.70
46816;DHT22;32787;53.316;8.670;2023-09-12T14:18:58;24.20;71.60
46816;DHT22;32787;53.316;8.670;2023-09-12T14:21:24;24.20;70.00
46816;DHT22;32787;53.316;8.670;2023-09-12T14:23:50;24.00;70.40
46816;DHT22;32787;53.316;8.670;2023-09-12T14:26:15;23.90;71.30
46816;DHT22;32787;53.316;8.670;2023-09-12T14:28:41;24.10;71.60
46816;DHT22;32787;53.316;8.670;2023-09-12T14:31:06;24.40;70.40
46816;DHT22;32787;53.316;8.670;2023-09-12T14:33:39;24.50;70.60
46816;DHT22;32787;53.316;8.670;2023-09-12T14:36:05;24.50;72.40
46816;DHT22;32787;53.316;8.670;2023-09-12T14:38:31;24.20;73.00
46816;DHT22;32787;53.316;8.670;2023-09-12T14:40:56;24.30;72.20
46816;DHT22;32787;53.316;8.670;2023-09-12T14:43:22;24.20;72.50
46816;DHT22;32787;53.316;8.670;2023-09-12T14:45:48;24.00;73.70
46816;DHT22;32787;53.316;8.670;2023-09-12T14:48:14;24.30;73.50
46816;DHT22;32787;53.316;8.670;2023-09-12T14:50:40;24.20;72.50
46816;DHT22;32787;53.316;8.670;2023-09-12T14:53:06;24.00;72.90
46816;DHT22;32787;53.316;8.670;2023-09-12T14:55:32;24.20;73.00
46816;DHT22;32787;53.316;8.670;2023-09-12T14:57:57;24.10;72.80
46816;DHT22;32787;53.316;8.670;2023-09-12T15:00:24;24.00;70.60
46816;DHT22;32787;53.316;8.670;2023-09-12T15:02:50;23.80;71.10
46816;DHT22;32787;53.316;8.670;2023-09-12T15:05:16;23.80;72.20
46816;DHT22;32787;53.316;8.670;2023-09-12T15:07:43;24.00;71.30
46816;DHT22;32787;53.316;8.670;2023-09-12T15:10:09;24.20;70.10
46816;DHT22;32787;53.316;8.670;2023-09-12T15:12:34;24.20;69.40
46816;DHT22;32787;53.316;8.670;2023-09-12T15:15:00;23.70;71.50
46816;DHT22;32787;53.316;8.670;2023-09-12T15:17:25;23.70;72.70
46816;DHT22;32787;53.316;8.670;2023-09-12T15:19:51;23.50;73.20
46816;DHT22;32787;53.316;8.670;2023-09-12T15:22:16;23.60;74.40
46816;DHT22;32787;53.316;8.670;2023-09-12T15:24:42;23.90;72.70
46816;DHT22;32787;53.316;8.670;2023-09-12T15:27:08;23.90;72.60
46816;DHT22;32787;53.316;8.670;2023-09-12T15:29:33;24.00;72.00
46816;DHT22;32787;53.316;8.670;2023-09-12T15:31:59;24.20;70.90
46816;DHT22;32787;53.316;8.670;2023-09-12T15:34:26;24.20;70.50